Las Vegas, NM

12:12 MST le 31 janvier 2015 (GMT -0700)
Las Vegas Municipal | Change Station
CLOSE
Current Station
Aéroport
Location: Las Vegas,
Altitude: 6877 ft
Stations météo à proximité

Alt. 6877 ft 35.65 °N, 105.14 °W | Updated 19 minutes ago

Neige
Neige
32 ° F
Paraît 21 ° F
N
17
Vent Variable Vent de Sud

Aujourd'hui
Haut(e) -- | Bas -- ° F
--% Risque de précip.
Hier
Haut(e) -- | Bas -- ° F
Precip. -- pouce
7:01 AM 5:26 PM
Lune gibbeuse croissante, 91% visible
Pression 29.84 pouce
Visibilité 10.0 Miles terrestres
Nuages Couvert 200 ft
Refroidissement éolien 21 ° F
Point de rosée 31 ° F
Humidité 96%
Précipitations 0.00 pouce
Profondeur de la couche neigeuse Non disponible.
UV 2 sur 12
Pollen .90 sur 12
Qualité de l'air Non disponible.
Flu Activity Non disponible.
METAR KLVS 311853Z AUTO 18015KT 10SM OVC002 00/M01 A2985 RMK AO2 SNE16 SLP104 P0000 T00001006

More Conditions Fewer Conditions

Pression 29.84 pouce
Visibilité 10.0 Miles terrestres
Nuages Couvert 200 ft
Refroidissement éolien 21 ° F
Point de rosée 31 ° F
Humidité 96%
Précipitations 0.00 pouce
Profondeur de la couche neigeuse Non disponible.
UV 2 sur 12
Pollen .90 sur 12
Qualité de l'air Non disponible.
Flu Activity Non disponible.
METAR KLVS 311853Z AUTO 18015KT 10SM OVC002 00/M01 A2985 RMK AO2 SNE16 SLP104 P0000 T00001006

More Conditions Fewer Conditions

Nowcast | as of 11:06 am MST on January 31, 2015

Light to moderate rain and snow will continue across portions of central New Mexico through 1 PM. Light rain and snow will impact Los Alamos...Espanola...Embudo...and Taos with areas at or above 7000 feet observing predominantly snow and areas below seeing a mix of rain and snow. Additional accumulations will generally be light around an inch or less in this area...however areas that will observe heavier precipitation will be found in Lincoln County where another one to three inches could quickly fall in the higher elevations. Lower elevations such as Ruidoso...Hondo...Carrizozo... and Lincoln will likely observe a quarter to a half inch of rainfall. In addition to the precipitation...patchy fog will reduce visibilities below a half mile at times...even in areas where precipitation has waned. For the latest Road conditions visit N M roads dot com or dial 5 1 1.

×

10-Day Weather Forecast

Almanac

Astronomie

Jan. 31, 2015 Lever Coucher
Temps réel
Crépuscule civil
Crépuscule nautique
Crépuscule astronomique
Lune
Durée de lumière visible
Longueur du jour
Tomorrow will be .
, % of the Moon is Illuminated

Extrêmes aujourd'hui

State Highs State Lows

Community

WunderPhotos

Upload Photos

1,792,154 Photos téléchargées !

WunderBlogs® & News

Nearby

Qualité de l'air

  Qualité de l'air Indice de la qualité de l'air Polluant
Not available.

Épaisseur de neige

Station Depth Altitude

Activité sismique

Ville Distance Mag. Time & Date
Minimum magnitude displayed is 2.5.

Températures des eaux côtières

Lieu Température

Stations météo à proximité